Time;durP1;ratioP1;P1;durP2;ratioP2;P2;SDS_P1;SDS_P2;PMS_P1;PMS_P2;Temp;Humidity;BMP_temperature;BMP_pressure;BME280_temperature;BME280_humidity;BME280_pressure;Samples;Min_cycle;Max_cycle;Signal;HPM_P1;HPM_P2
2022/05/16 00:01:33;;;;;;;;;10.67;7.67;;;;;;;;4901200;29;46245;-83
2022/05/16 00:03:59;;;;;;;;;7.33;7.33;;;;;;;;4888544;28;46297;-79
2022/05/16 00:06:24;;;;;;;;;10.33;7.67;;;;;;;;4901189;28;45577;-82
2022/05/16 00:08:51;;;;;;;;;10.33;10.33;;;;;;;;4893737;29;46050;-81
2022/05/16 00:11:17;;;;;;;;;11.67;10.33;;;;;;;;4907567;28;45586;-80
2022/05/16 00:13:42;;;;;;;;;9.00;9.00;;;;;;;;4901177;28;45442;-81
2022/05/16 00:16:07;;;;;;;;;13.00;12.00;;;;;;;;4894743;28;45389;-82
2022/05/16 00:18:32;;;;;;;;;22.00;16.67;;;;;;;;4898546;28;46038;-79
2022/05/16 00:20:58;;;;;;;;;13.33;13.00;;;;;;;;4921159;28;45383;-79
2022/05/16 00:23:23;;;;;;;;;10.67;9.00;;;;;;;;4916425;28;45400;-81
2022/05/16 00:25:49;;;;;;;;;6.67;6.67;;;;;;;;4900038;28;45703;-80
2022/05/16 00:28:14;;;;;;;;;9.00;8.00;;;;;;;;4916502;28;45716;-80
2022/05/16 00:30:39;;;;;;;;;8.33;8.33;;;;;;;;4891019;28;46799;-80
2022/05/16 00:33:04;;;;;;;;;10.33;8.33;;;;;;;;4908196;28;45509;-80
2022/05/16 00:35:30;;;;;;;;;9.33;7.33;;;;;;;;4894436;28;45646;-79
2022/05/16 00:37:55;;;;;;;;;11.33;7.33;;;;;;;;4909921;28;45935;-80
2022/05/16 00:40:20;;;;;;;;;8.00;7.67;;;;;;;;4917159;28;46062;-80
2022/05/16 00:42:46;;;;;;;;;11.33;9.00;;;;;;;;4916794;28;45375;-81
2022/05/16 00:45:13;;;;;;;;;9.67;7.00;;;;;;;;4916257;28;45657;-80
2022/05/16 00:47:38;;;;;;;;;8.33;8.00;;;;;;;;4929068;28;45457;-80
2022/05/16 00:50:05;;;;;;;;;8.00;6.33;;;;;;;;4917313;28;46812;-81
2022/05/16 00:52:38;;;;;;;;;8.00;7.00;;;;;;;;4913704;28;46029;-80
2022/05/16 00:55:06;;;;;;;;;5.00;5.00;;;;;;;;4903312;28;45691;-80
2022/05/16 00:57:34;;;;;;;;;5.33;4.00;;;;;;;;4913081;28;45744;-80
2022/05/16 01:00:11;;;;;;;;;3.67;3.67;;;;;;;;4894347;29;47288;-79
2022/05/16 01:05:25;;;;;;;;;3.33;3.33;;;;;;;;4901073;28;45877;-80
2022/05/16 01:07:51;;;;;;;;;3.00;3.00;;;;;;;;4896271;29;45924;-80
2022/05/16 01:10:18;;;;;;;;;3.33;3.33;;;;;;;;4897809;28;45920;-80
2022/05/16 01:12:45;;;;;;;;;5.33;4.00;;;;;;;;4914796;28;45534;-81
2022/05/16 01:15:12;;;;;;;;;2.50;2.50;;;;;;;;4917513;28;45362;-81
2022/05/16 01:17:37;;;;;;;;;2.67;2.67;;;;;;;;4902742;28;45852;-81
2022/05/16 01:20:03;;;;;;;;;3.33;3.00;;;;;;;;4916701;28;45994;-80
2022/05/16 01:22:39;;;;;;;;;7.00;4.00;;;;;;;;4914754;28;45732;-79
2022/05/16 01:25:04;;;;;;;;;3.67;3.00;;;;;;;;4915983;28;45739;-82
2022/05/16 01:27:59;;;;;;;;;7.00;3.67;;;;;;;;4911664;28;45671;-80
2022/05/16 01:30:26;;;;;;;;;3.00;3.00;;;;;;;;4888506;28;46236;-80
2022/05/16 01:32:51;;;;;;;;;2.67;2.67;;;;;;;;4911963;28;45496;-80
2022/05/16 01:35:18;;;;;;;;;5.33;3.00;;;;;;;;4884146;28;45587;-81
2022/05/16 01:40:27;;;;;;;;;3.00;2.00;;;;;;;;4916654;28;45406;-81
2022/05/16 01:42:53;;;;;;;;;6.00;5.33;;;;;;;;4917640;28;45678;-80
2022/05/16 01:45:18;;;;;;;;;3.67;3.67;;;;;;;;4916833;28;45608;-82
2022/05/16 01:47:44;;;;;;;;;5.33;2.67;;;;;;;;4898451;28;45411;-81
2022/05/16 01:50:09;;;;;;;;;6.00;4.00;;;;;;;;4906584;28;46190;-80
2022/05/16 01:52:34;;;;;;;;;5.67;4.33;;;;;;;;4914347;28;45440;-79
2022/05/16 01:55:00;;;;;;;;;3.00;2.00;;;;;;;;4912143;28;45467;-80
2022/05/16 01:57:25;;;;;;;;;3.00;3.00;;;;;;;;4899847;28;45484;-81
2022/05/16 01:59:50;;;;;;;;;3.67;3.67;;;;;;;;4916317;28;45323;-80
2022/05/16 02:02:15;;;;;;;;;4.00;4.00;;;;;;;;4904034;28;46031;-79
2022/05/16 02:04:41;;;;;;;;;4.00;4.00;;;;;;;;4894240;28;45555;-81
2022/05/16 02:07:07;;;;;;;;;5.33;3.00;;;;;;;;4912479;28;45360;-81
2022/05/16 02:09:32;;;;;;;;;6.00;5.00;;;;;;;;4919082;28;46171;-80
2022/05/16 02:11:57;;;;;;;;;4.00;4.00;;;;;;;;4915198;28;45437;-79
2022/05/16 02:14:23;;;;;;;;;4.00;4.00;;;;;;;;4920326;28;45690;-80
2022/05/16 02:16:49;;;;;;;;;4.33;4.00;;;;;;;;4902519;28;45790;-78
2022/05/16 02:19:15;;;;;;;;;5.00;5.00;;;;;;;;4910192;28;47983;-79
2022/05/16 02:24:39;;;;;;;;;5.67;5.67;;;;;;;;4919516;28;45295;-80
2022/05/16 02:27:05;;;;;;;;;4.33;3.33;;;;;;;;4916848;28;45840;-79
2022/05/16 02:29:31;;;;;;;;;5.33;5.33;;;;;;;;4910502;28;45728;-79
2022/05/16 02:31:56;;;;;;;;;7.67;6.00;;;;;;;;4900774;28;45976;-81
2022/05/16 02:34:21;;;;;;;;;4.00;4.00;;;;;;;;4912529;28;45419;-80
2022/05/16 02:36:47;;;;;;;;;9.33;6.33;;;;;;;;4893351;28;46113;-80
2022/05/16 02:39:13;;;;;;;;;6.67;4.33;;;;;;;;4920792;28;45424;-79
2022/05/16 02:41:39;;;;;;;;;5.00;5.00;;;;;;;;4910667;28;45546;-81
2022/05/16 02:44:04;;;;;;;;;4.33;4.33;;;;;;;;4914707;28;45729;-79
2022/05/16 02:46:30;;;;;;;;;5.67;5.67;;;;;;;;4892624;28;45979;-80
2022/05/16 02:48:56;;;;;;;;;8.00;7.00;;;;;;;;4901848;28;47069;-79
2022/05/16 02:51:21;;;;;;;;;5.33;4.33;;;;;;;;4895009;28;45957;-79
2022/05/16 02:53:46;;;;;;;;;8.33;6.33;;;;;;;;4905852;28;45949;-79
2022/05/16 02:56:11;;;;;;;;;6.00;6.00;;;;;;;;4903902;28;45909;-80
2022/05/16 02:58:37;;;;;;;;;8.33;7.33;;;;;;;;4899349;28;47426;-78
2022/05/16 03:01:02;;;;;;;;;4.00;4.00;;;;;;;;4891567;28;45652;-79
2022/05/16 03:03:27;;;;;;;;;6.67;6.67;;;;;;;;4915511;28;45820;-79
2022/05/16 03:05:53;;;;;;;;;5.33;5.33;;;;;;;;4909516;28;45872;-79
2022/05/16 03:08:18;;;;;;;;;5.67;5.67;;;;;;;;4918215;28;46204;-79
2022/05/16 03:10:43;;;;;;;;;8.67;8.67;;;;;;;;4892104;28;45802;-80
2022/05/16 03:13:08;;;;;;;;;9.33;7.33;;;;;;;;4897268;29;45561;-81
2022/05/16 03:15:34;;;;;;;;;6.00;6.00;;;;;;;;4899832;28;45502;-80
2022/05/16 03:17:59;;;;;;;;;9.33;7.00;;;;;;;;4911623;28;45950;-79
2022/05/16 03:20:25;;;;;;;;;10.00;7.67;;;;;;;;4893295;28;45842;-79
2022/05/16 03:22:50;;;;;;;;;13.00;12.00;;;;;;;;4919157;28;45377;-80
2022/05/16 03:25:16;;;;;;;;;8.67;7.67;;;;;;;;4910426;28;45764;-82
2022/05/16 03:27:41;;;;;;;;;13.67;10.67;;;;;;;;4899779;28;47804;-79
2022/05/16 03:30:08;;;;;;;;;11.33;8.67;;;;;;;;4900756;28;45772;-80
2022/05/16 03:32:33;;;;;;;;;9.00;7.33;;;;;;;;4891746;28;45455;-80
2022/05/16 03:34:58;;;;;;;;;10.00;10.00;;;;;;;;4902068;28;45438;-79
2022/05/16 03:37:24;;;;;;;;;9.33;8.33;;;;;;;;4885870;28;46615;-80
2022/05/16 03:42:33;;;;;;;;;12.33;10.00;;;;;;;;4913021;28;45879;-80
2022/05/16 03:44:59;;;;;;;;;9.00;9.00;;;;;;;;4923847;28;45457;-80
2022/05/16 03:47:24;;;;;;;;;12.67;11.00;;;;;;;;4907178;28;47855;-80
2022/05/16 03:49:49;;;;;;;;;7.33;7.33;;;;;;;;4920690;28;45438;-81
2022/05/16 03:52:15;;;;;;;;;8.67;8.67;;;;;;;;4891962;28;45642;-80
2022/05/16 03:54:43;;;;;;;;;9.33;9.33;;;;;;;;4921052;28;45706;-80
2022/05/16 03:57:09;;;;;;;;;11.67;8.33;;;;;;;;4908267;28;47451;-81
2022/05/16 03:59:34;;;;;;;;;10.00;10.00;;;;;;;;4900428;28;45829;-81
2022/05/16 04:01:59;;;;;;;;;9.33;9.33;;;;;;;;4904797;28;45733;-80
2022/05/16 04:04:26;;;;;;;;;10.67;10.67;;;;;;;;4890669;28;46008;-82
2022/05/16 04:06:51;;;;;;;;;16.00;8.00;;;;;;;;4907477;28;48036;-82
2022/05/16 04:09:16;;;;;;;;;10.33;9.33;;;;;;;;4908461;28;45632;-81
2022/05/16 04:11:42;;;;;;;;;15.00;13.33;;;;;;;;4887731;28;45560;-79
2022/05/16 04:14:07;;;;;;;;;14.00;13.67;;;;;;;;4892034;28;47038;-80
2022/05/16 04:16:33;;;;;;;;;12.67;11.67;;;;;;;;4910017;28;45694;-80
2022/05/16 04:18:58;;;;;;;;;17.33;16.00;;;;;;;;4900317;28;45670;-81
2022/05/16 04:21:23;;;;;;;;;14.67;14.00;;;;;;;;4901034;28;45675;-80
2022/05/16 04:23:49;;;;;;;;;11.33;8.33;;;;;;;;4891958;28;45762;-81
2022/05/16 04:26:14;;;;;;;;;11.33;9.33;;;;;;;;4917264;28;45392;-78
2022/05/16 04:28:40;;;;;;;;;13.00;9.67;;;;;;;;4890838;28;45884;-80
2022/05/16 04:31:05;;;;;;;;;17.33;12.33;;;;;;;;4906763;28;45561;-80
2022/05/16 04:33:33;;;;;;;;;13.33;12.00;;;;;;;;4895510;28;45571;-81
2022/05/16 04:35:58;;;;;;;;;15.00;12.67;;;;;;;;4916827;28;45837;-80
2022/05/16 04:38:24;;;;;;;;;16.67;13.67;;;;;;;;4909775;28;45772;-80
2022/05/16 04:43:33;;;;;;;;;12.67;12.67;;;;;;;;4923723;28;45347;-80
2022/05/16 04:45:58;;;;;;;;;15.67;13.00;;;;;;;;4907080;28;46908;-81
2022/05/16 04:48:24;;;;;;;;;13.33;13.33;;;;;;;;4905531;28;45790;-81
2022/05/16 04:50:49;;;;;;;;;14.67;13.33;;;;;;;;4874140;28;45873;-80
2022/05/16 04:53:14;;;;;;;;;13.67;12.33;;;;;;;;4900575;28;45909;-80
2022/05/16 04:55:40;;;;;;;;;22.67;17.33;;;;;;;;4915353;28;46348;-79
2022/05/16 04:58:05;;;;;;;;;15.00;13.67;;;;;;;;4903002;28;45936;-81
2022/05/16 05:00:30;;;;;;;;;15.67;12.67;;;;;;;;4899914;28;45713;-81
2022/05/16 05:02:59;;;;;;;;;16.33;16.33;;;;;;;;4902490;28;46412;-84
2022/05/16 05:05:27;;;;;;;;;17.00;14.00;;;;;;;;4902654;28;46705;-83
2022/05/16 05:07:53;;;;;;;;;19.33;17.67;;;;;;;;4922858;28;45434;-82
2022/05/16 05:15:49;;;;;;;;;19.67;16.67;;;;;;;;4915662;28;45451;-80
2022/05/16 05:18:15;;;;;;;;;18.33;14.00;;;;;;;;4921317;28;45725;-85
2022/05/16 05:20:44;;;;;;;;;14.33;13.67;;;;;;;;4921544;28;45820;-83
2022/05/16 05:23:09;;;;;;;;;18.33;15.00;;;;;;;;4904115;28;45513;-81
2022/05/16 05:25:38;;;;;;;;;17.00;15.33;;;;;;;;4919019;28;46269;-81
2022/05/16 05:28:03;;;;;;;;;15.67;14.00;;;;;;;;4912052;28;45400;-77
2022/05/16 05:30:30;;;;;;;;;20.00;15.33;;;;;;;;4907146;28;45478;-79
2022/05/16 05:32:55;;;;;;;;;17.33;16.00;;;;;;;;4914527;28;45776;-81
2022/05/16 05:35:21;;;;;;;;;21.33;16.33;;;;;;;;4902150;28;45770;-80
2022/05/16 05:37:46;;;;;;;;;15.33;15.33;;;;;;;;4894930;28;45698;-80
2022/05/16 05:40:12;;;;;;;;;16.33;15.67;;;;;;;;4907942;28;45693;-79
2022/05/16 05:42:38;;;;;;;;;18.00;14.33;;;;;;;;4914304;28;46003;-78
2022/05/16 05:45:04;;;;;;;;;24.33;15.00;;;;;;;;4899786;28;47168;-77
2022/05/16 05:47:29;;;;;;;;;12.33;12.33;;;;;;;;4914101;28;45430;-78
2022/05/16 05:49:55;;;;;;;;;17.67;14.67;;;;;;;;4897055;28;45518;-79
2022/05/16 05:52:20;;;;;;;;;13.00;12.67;;;;;;;;4914251;28;45749;-79
2022/05/16 05:54:46;;;;;;;;;17.67;14.33;;;;;;;;4910947;28;46028;-79
2022/05/16 05:57:13;;;;;;;;;11.67;11.67;;;;;;;;4912509;28;45850;-80
2022/05/16 06:02:24;;;;;;;;;15.67;13.00;;;;;;;;4887792;28;46093;-81
2022/05/16 06:04:50;;;;;;;;;13.00;12.33;;;;;;;;4907803;28;45384;-79
2022/05/16 06:07:15;;;;;;;;;13.00;13.00;;;;;;;;4894736;28;45521;-77
2022/05/16 06:09:42;;;;;;;;;14.67;13.00;;;;;;;;4908693;28;45727;-80
2022/05/16 06:12:08;;;;;;;;;13.00;10.33;;;;;;;;4907166;28;45861;-81
2022/05/16 06:14:34;;;;;;;;;12.67;12.67;;;;;;;;4907721;28;46309;-82
2022/05/16 06:16:59;;;;;;;;;13.00;11.67;;;;;;;;4906843;28;45522;-78
2022/05/16 06:19:24;;;;;;;;;13.33;12.33;;;;;;;;4920098;28;45459;-79
2022/05/16 06:21:52;;;;;;;;;13.33;10.33;;;;;;;;4906477;28;45674;-79
2022/05/16 06:27:02;;;;;;;;;14.00;11.33;;;;;;;;4909130;28;45833;-78
2022/05/16 06:29:28;;;;;;;;;13.00;11.67;;;;;;;;4911041;28;45682;-79
2022/05/16 06:31:53;;;;;;;;;5.00;5.00;;;;;;;;4915085;28;45878;-80
2022/05/16 06:34:19;;;;;;;;;10.00;10.00;;;;;;;;4915264;28;46031;-80
2022/05/16 06:36:44;;;;;;;;;11.00;11.00;;;;;;;;4896727;28;45485;-80
2022/05/16 06:39:09;;;;;;;;;15.67;13.33;;;;;;;;4911333;28;45375;-79
2022/05/16 06:41:35;;;;;;;;;12.33;11.67;;;;;;;;4893847;28;45548;-81
2022/05/16 06:44:01;;;;;;;;;12.67;11.33;;;;;;;;4912717;28;45714;-79
2022/05/16 06:46:26;;;;;;;;;15.67;13.33;;;;;;;;4914268;28;45861;-82
2022/05/16 06:48:52;;;;;;;;;12.33;10.33;;;;;;;;4912529;28;45708;-80
2022/05/16 06:51:17;;;;;;;;;14.67;11.67;;;;;;;;4908444;28;45679;-78
2022/05/16 06:53:42;;;;;;;;;12.00;12.00;;;;;;;;4914095;28;46292;-81
2022/05/16 06:56:08;;;;;;;;;13.00;13.00;;;;;;;;4917025;28;45886;-79
2022/05/16 06:58:34;;;;;;;;;12.00;12.00;;;;;;;;4912134;28;45542;-78
2022/05/16 07:00:59;;;;;;;;;12.33;12.33;;;;;;;;4918641;28;45599;-80
2022/05/16 07:03:25;;;;;;;;;14.67;11.00;;;;;;;;4893451;28;48450;-79
2022/05/16 07:05:51;;;;;;;;;9.33;8.33;;;;;;;;4895638;28;45540;-78
2022/05/16 07:08:17;;;;;;;;;8.67;7.67;;;;;;;;4901069;28;45455;-80
2022/05/16 07:10:43;;;;;;;;;8.67;8.67;;;;;;;;4911131;28;45584;-80
2022/05/16 07:13:12;;;;;;;;;10.67;8.00;;;;;;;;4909336;28;45667;-80
2022/05/16 07:15:37;;;;;;;;;14.33;11.67;;;;;;;;4917418;28;45650;-80
2022/05/16 07:18:03;;;;;;;;;12.67;8.67;;;;;;;;4899868;28;45403;-81
2022/05/16 07:20:31;;;;;;;;;11.00;8.33;;;;;;;;4912762;28;45992;-79
2022/05/16 07:23:00;;;;;;;;;9.67;7.67;;;;;;;;4910539;28;45616;-80
2022/05/16 07:25:26;;;;;;;;;8.25;8.25;;;;;;;;4888345;28;45575;-79
2022/05/16 07:28:11;;;;;;;;;9.00;8.00;;;;;;;;4917657;28;45800;-78
2022/05/16 07:30:36;;;;;;;;;8.33;7.00;;;;;;;;4916333;28;45387;-80
2022/05/16 07:33:02;;;;;;;;;8.00;8.00;;;;;;;;4890422;28;47903;-79
2022/05/16 07:35:30;;;;;;;;;9.33;9.33;;;;;;;;4903961;28;45907;-79
2022/05/16 07:37:56;;;;;;;;;7.00;7.00;;;;;;;;4910786;28;45875;-79
2022/05/16 07:40:23;;;;;;;;;8.00;7.25;;;;;;;;4913976;28;45611;-78
2022/05/16 07:42:49;;;;;;;;;9.67;8.67;;;;;;;;4916385;28;46016;-80
2022/05/16 07:45:14;;;;;;;;;8.00;8.00;;;;;;;;4916767;28;45471;-79
2022/05/16 07:47:40;;;;;;;;;7.33;7.33;;;;;;;;4916849;28;45922;-79
2022/05/16 07:50:07;;;;;;;;;7.00;7.00;;;;;;;;4898866;28;47225;-80
2022/05/16 07:52:33;;;;;;;;;7.00;7.00;;;;;;;;4924502;28;45376;-80
2022/05/16 07:55:02;;;;;;;;;7.33;7.33;;;;;;;;4911711;28;45435;-82
2022/05/16 07:57:27;;;;;;;;;8.33;8.33;;;;;;;;4920308;28;45358;-80
2022/05/16 07:59:53;;;;;;;;;8.67;7.00;;;;;;;;4918309;28;46097;-79
2022/05/16 08:02:21;;;;;;;;;10.67;8.33;;;;;;;;4891646;28;48266;-80
2022/05/16 08:04:49;;;;;;;;;6.00;5.00;;;;;;;;4922913;28;45500;-81
2022/05/16 08:07:15;;;;;;;;;6.33;6.33;;;;;;;;4904023;28;45716;-80
2022/05/16 08:12:25;;;;;;;;;8.00;8.00;;;;;;;;4922651;28;45826;-80
2022/05/16 08:14:55;;;;;;;;;8.33;8.33;;;;;;;;4920158;28;45822;-83
2022/05/16 08:17:22;;;;;;;;;9.25;8.00;;;;;;;;4919950;28;45891;-79
2022/05/16 08:19:48;;;;;;;;;11.33;8.67;;;;;;;;4905667;28;45797;-79
2022/05/16 08:22:14;;;;;;;;;8.33;7.67;;;;;;;;4904208;28;48120;-80
2022/05/16 08:24:40;;;;;;;;;7.33;7.33;;;;;;;;4920179;28;45988;-78
2022/05/16 08:27:05;;;;;;;;;9.67;8.33;;;;;;;;4923473;28;45433;-81
2022/05/16 08:29:31;;;;;;;;;4.25;4.25;;;;;;;;4921228;28;45420;-82
2022/05/16 08:31:57;;;;;;;;;7.33;6.00;;;;;;;;4918230;28;46101;-81
2022/05/16 08:34:23;;;;;;;;;5.00;5.00;;;;;;;;4915036;28;45407;-80
2022/05/16 08:42:17;;;;;;;;;6.33;5.33;;;;;;;;4919944;28;45830;-81
2022/05/16 08:45:27;;;;;;;;;5.25;5.25;;;;;;;;4910820;28;45482;-82
2022/05/16 08:47:57;;;;;;;;;6.25;5.25;;;;;;;;4913996;28;45421;-80
2022/05/16 08:50:28;;;;;;;;;3.75;3.00;;;;;;;;4901626;28;45993;-79
2022/05/16 08:52:58;;;;;;;;;6.33;5.33;;;;;;;;4921965;28;45513;-80
2022/05/16 08:55:24;;;;;;;;;6.33;5.33;;;;;;;;4918324;28;45815;-82
2022/05/16 08:57:56;;;;;;;;;5.00;5.00;;;;;;;;4902939;28;45450;-81
2022/05/16 09:00:31;;;;;;;;;7.25;5.25;;;;;;;;4901112;28;45785;-81
2022/05/16 09:02:58;;;;;;;;;8.75;8.00;;;;;;;;4922977;28;45406;-82
2022/05/16 09:05:29;;;;;;;;;8.00;5.67;;;;;;;;4916680;28;45574;-80
2022/05/16 09:07:56;;;;;;;;;7.25;7.25;;;;;;;;4917314;28;45794;-80
2022/05/16 09:10:21;;;;;;;;;6.00;6.00;;;;;;;;4899389;28;47166;-81
2022/05/16 09:13:05;;;;;;;;;10.75;8.50;;;;;;;;4912398;28;46246;-81
2022/05/16 09:15:30;;;;;;;;;8.00;5.00;;;;;;;;4892574;28;45549;-79
2022/05/16 09:17:56;;;;;;;;;6.25;6.25;;;;;;;;4916717;28;45537;-82
2022/05/16 09:20:21;;;;;;;;;7.50;5.50;;;;;;;;4920901;28;45751;-81
2022/05/16 09:23:02;;;;;;;;;8.00;7.00;;;;;;;;4923717;28;45634;-80
2022/05/16 09:25:31;;;;;;;;;7.00;7.00;;;;;;;;4918787;28;45875;-79
2022/05/16 09:30:48;;;;;;;;;7.67;6.00;;;;;;;;4909227;28;45537;-80
2022/05/16 09:33:24;;;;;;;;;7.25;5.25;;;;;;;;4903064;28;45442;-81
2022/05/16 09:35:52;;;;;;;;;4.75;4.75;;;;;;;;4905041;28;45583;-80
2022/05/16 09:38:19;;;;;;;;;4.25;4.25;;;;;;;;4899564;28;45775;-78
2022/05/16 09:41:14;;;;;;;;;5.00;5.00;;;;;;;;4905307;28;45550;-81
2022/05/16 09:43:44;;;;;;;;;5.75;5.50;;;;;;;;4903249;28;46202;-82
2022/05/16 09:46:12;;;;;;;;;5.00;4.50;;;;;;;;4923418;28;45789;-79
2022/05/16 09:48:38;;;;;;;;;7.00;5.50;;;;;;;;4921172;28;46162;-79
2022/05/16 09:51:05;;;;;;;;;7.25;6.25;;;;;;;;4904808;28;45804;-80
2022/05/16 09:53:36;;;;;;;;;9.67;9.67;;;;;;;;4910969;28;46554;-80
2022/05/16 09:56:22;;;;;;;;;8.00;6.00;;;;;;;;4908302;28;45459;-81
2022/05/16 09:58:49;;;;;;;;;6.50;5.50;;;;;;;;4905875;28;44889;-79
2022/05/16 10:01:31;;;;;;;;;7.00;7.00;;;;;;;;4908253;28;45502;-79
2022/05/16 10:04:06;;;;;;;;;6.33;6.33;;;;;;;;4904908;28;46044;-79
2022/05/16 10:06:35;;;;;;;;;4.00;4.00;;;;;;;;4902548;28;45972;-82
2022/05/16 10:09:05;;;;;;;;;4.33;4.33;;;;;;;;4904211;28;45669;-82
2022/05/16 10:11:32;;;;;;;;;5.33;5.33;;;;;;;;4909548;28;45888;-82
2022/05/16 10:13:57;;;;;;;;;6.00;6.00;;;;;;;;4902422;28;46751;-84
2022/05/16 10:16:26;;;;;;;;;5.00;5.00;;;;;;;;4879704;28;45419;-83
2022/05/16 10:19:04;;;;;;;;;4.67;4.67;;;;;;;;4900923;28;45803;-85
2022/05/16 10:21:35;;;;;;;;;3.00;3.00;;;;;;;;4912157;28;45575;-84
2022/05/16 10:24:02;;;;;;;;;5.00;5.00;;;;;;;;4907025;28;46515;-81
2022/05/16 10:26:30;;;;;;;;;4.33;4.33;;;;;;;;4911189;28;45705;-83
2022/05/16 10:29:12;;;;;;;;;3.67;3.67;;;;;;;;4905572;28;45385;-82
2022/05/16 10:34:52;;;;;;;;;3.33;3.33;;;;;;;;4908465;28;45541;-81
2022/05/16 10:37:18;;;;;;;;;2.67;2.67;;;;;;;;4913883;28;45538;-82
2022/05/16 10:39:46;;;;;;;;;3.00;3.00;;;;;;;;4911146;28;45949;-83
2022/05/16 10:42:11;;;;;;;;;4.00;4.00;;;;;;;;4911165;28;45587;-82
2022/05/16 10:44:40;;;;;;;;;3.00;2.75;;;;;;;;4917428;28;46480;-84
2022/05/16 10:47:24;;;;;;;;;3.00;3.00;;;;;;;;4917778;28;45797;-82
2022/05/16 10:49:52;;;;;;;;;2.50;2.00;;;;;;;;4890108;28;45816;-81
2022/05/16 10:52:17;;;;;;;;;3.75;2.75;;;;;;;;4913003;28;46774;-82
2022/05/16 10:54:42;;;;;;;;;3.00;2.25;;;;;;;;4909175;28;46027;-80
2022/05/16 10:57:27;;;;;;;;;2.33;2.33;;;;;;;;4910886;28;45753;-83
2022/05/16 11:00:07;;;;;;;;;4.00;4.00;;;;;;;;4895777;28;45526;-82
2022/05/16 11:03:08;;;;;;;;;3.00;3.00;;;;;;;;4889596;28;45594;-82
2022/05/16 11:05:55;;;;;;;;;3.25;3.25;;;;;;;;4841928;29;47317;-83
2022/05/16 11:08:29;;;;;;;;;2.75;2.00;;;;;;;;4911461;28;45911;-82
2022/05/16 11:10:58;;;;;;;;;2.00;2.00;;;;;;;;4914936;28;45804;-81
2022/05/16 11:13:29;;;;;;;;;4.75;3.00;;;;;;;;4906770;28;46831;-84
2022/05/16 11:15:56;;;;;;;;;2.50;2.50;;;;;;;;4902101;28;46514;-83
2022/05/16 11:18:31;;;;;;;;;2.75;2.75;;;;;;;;4912077;28;45860;-82
2022/05/16 11:21:15;;;;;;;;;3.25;3.00;;;;;;;;4917249;28;45831;-82
2022/05/16 11:24:07;;;;;;;;;2.50;2.50;;;;;;;;4912567;28;45729;-78
2022/05/16 11:26:32;;;;;;;;;2.25;2.25;;;;;;;;4885203;28;46777;-82
2022/05/16 11:29:18;;;;;;;;;2.25;2.25;;;;;;;;4920468;28;45462;-82
2022/05/16 11:32:02;;;;;;;;;2.00;0.50;;;;;;;;4898920;28;45651;-82
2022/05/16 11:34:49;;;;;;;;;4.25;2.25;;;;;;;;4911136;28;46163;-82
2022/05/16 11:37:18;;;;;;;;;4.00;4.00;;;;;;;;4914306;28;45690;-81
2022/05/16 11:39:49;;;;;;;;;2.50;2.00;;;;;;;;4917572;28;45414;-81
2022/05/16 11:42:41;;;;;;;;;3.00;3.00;;;;;;;;4915085;28;46194;-83
2022/05/16 11:45:06;;;;;;;;;4.50;3.25;;;;;;;;4922261;28;46105;-83
2022/05/16 11:47:34;;;;;;;;;5.00;2.75;;;;;;;;4917222;28;45478;-84
2022/05/16 11:50:00;;;;;;;;;3.25;2.00;;;;;;;;4917988;28;45548;-82
2022/05/16 11:52:47;;;;;;;;;1.50;1.50;;;;;;;;4917248;28;45530;-82
2022/05/16 12:00:56;;;;;;;;;3.50;3.00;;;;;;;;4923904;28;45779;-83
2022/05/16 12:03:21;;;;;;;;;4.00;3.25;;;;;;;;4891456;28;45441;-83
2022/05/16 12:05:47;;;;;;;;;4.00;2.50;;;;;;;;4892647;28;45747;-82
2022/05/16 12:08:12;;;;;;;;;3.00;3.00;;;;;;;;4921380;28;45434;-82
2022/05/16 12:10:53;;;;;;;;;2.75;2.75;;;;;;;;4913682;28;45352;-82
2022/05/16 12:13:18;;;;;;;;;3.00;3.00;;;;;;;;4913086;28;45530;-82
2022/05/16 12:15:44;;;;;;;;;3.00;2.00;;;;;;;;4917433;28;45871;-80
2022/05/16 12:18:28;;;;;;;;;3.75;2.00;;;;;;;;4910578;28;45848;-83
2022/05/16 12:21:03;;;;;;;;;3.75;2.75;;;;;;;;4889308;28;45829;-81
2022/05/16 12:23:43;;;;;;;;;2.50;2.50;;;;;;;;4890410;28;45597;-81
2022/05/16 12:26:09;;;;;;;;;2.75;2.50;;;;;;;;4911838;28;46148;-80
2022/05/16 12:28:35;;;;;;;;;3.25;3.25;;;;;;;;4908813;28;45795;-81
2022/05/16 12:31:01;;;;;;;;;2.00;2.00;;;;;;;;4887123;28;45419;-81
2022/05/16 12:33:30;;;;;;;;;2.25;2.25;;;;;;;;4894637;28;45604;-80
2022/05/16 12:35:55;;;;;;;;;3.00;3.00;;;;;;;;4891484;28;46497;-80
2022/05/16 12:38:29;;;;;;;;;2.75;2.75;;;;;;;;4893443;28;46382;-80
2022/05/16 12:41:39;;;;;;;;;3.25;2.00;;;;;;;;4912131;28;45280;-81
2022/05/16 12:44:23;;;;;;;;;2.00;2.00;;;;;;;;4883930;28;46012;-82
2022/05/16 12:47:04;;;;;;;;;2.25;2.25;;;;;;;;4903060;28;45465;-80
2022/05/16 12:49:36;;;;;;;;;2.00;2.00;;;;;;;;4889969;28;46963;-79
2022/05/16 12:52:22;;;;;;;;;1.00;1.00;;;;;;;;4915211;28;45438;-81
2022/05/16 12:55:06;;;;;;;;;2.00;2.00;;;;;;;;4913417;28;46312;-82
2022/05/16 12:57:37;;;;;;;;;2.75;2.75;;;;;;;;4912736;28;45744;-83
2022/05/16 13:00:02;;;;;;;;;2.25;2.25;;;;;;;;4917734;28;46361;-83
2022/05/16 13:02:31;;;;;;;;;5.00;2.50;;;;;;;;4922598;28;45552;-83
2022/05/16 13:05:05;;;;;;;;;2.75;2.75;;;;;;;;4918408;28;45816;-82
2022/05/16 13:07:31;;;;;;;;;2.00;2.00;;;;;;;;4916758;28;45446;-83
2022/05/16 13:10:06;;;;;;;;;2.50;2.00;;;;;;;;4916914;28;45830;-82
2022/05/16 13:12:32;;;;;;;;;2.25;2.25;;;;;;;;4917409;28;45510;-83
2022/05/16 13:14:58;;;;;;;;;2.00;2.00;;;;;;;;4908165;28;45960;-82
2022/05/16 13:17:26;;;;;;;;;2.00;2.00;;;;;;;;4918081;28;45684;-79
2022/05/16 13:19:52;;;;;;;;;2.00;2.00;;;;;;;;4915983;28;45629;-82
2022/05/16 13:22:19;;;;;;;;;4.50;1.75;;;;;;;;4915275;28;45580;-82
2022/05/16 13:24:45;;;;;;;;;2.00;2.00;;;;;;;;4908234;28;46091;-82
2022/05/16 13:30:01;;;;;;;;;1.50;1.50;;;;;;;;4918128;28;45596;-80
2022/05/16 13:32:29;;;;;;;;;3.00;2.00;;;;;;;;4899122;28;45458;-84
2022/05/16 13:34:56;;;;;;;;;3.75;1.00;;;;;;;;4887262;28;45742;-82
2022/05/16 13:37:23;;;;;;;;;1.00;1.00;;;;;;;;4901352;28;46320;-80
2022/05/16 13:40:01;;;;;;;;;1.00;1.00;;;;;;;;4902364;28;47444;-82
2022/05/16 13:42:28;;;;;;;;;2.00;2.00;;;;;;;;4899384;28;45704;-83
2022/05/16 13:45:00;;;;;;;;;2.00;2.00;;;;;;;;4903969;28;46631;-80
2022/05/16 13:47:27;;;;;;;;;1.00;1.00;;;;;;;;4902478;28;47559;-81
2022/05/16 13:49:53;;;;;;;;;1.75;1.75;;;;;;;;4919263;28;46197;-80
2022/05/16 13:52:30;;;;;;;;;1.25;1.25;;;;;;;;4910280;28;45502;-81
2022/05/16 13:55:00;;;;;;;;;2.00;2.00;;;;;;;;4909035;28;45606;-82
2022/05/16 13:57:27;;;;;;;;;1.00;1.00;;;;;;;;4920723;28;45757;-80
2022/05/16 14:00:08;;;;;;;;;2.00;2.00;;;;;;;;4892583;28;47923;-83
2022/05/16 14:02:33;;;;;;;;;1.75;1.00;;;;;;;;4910342;28;45445;-81
2022/05/16 14:05:05;;;;;;;;;1.25;1.25;;;;;;;;4906356;28;45980;-82
2022/05/16 14:07:34;;;;;;;;;1.00;1.00;;;;;;;;4916596;28;46038;-80
2022/05/16 14:10:10;;;;;;;;;1.00;1.00;;;;;;;;4915437;28;45779;-82
2022/05/16 14:12:41;;;;;;;;;0.75;0.75;;;;;;;;4908479;28;45513;-82
2022/05/16 14:15:08;;;;;;;;;0.00;0.00;;;;;;;;4915088;28;45788;-81
2022/05/16 14:17:36;;;;;;;;;1.00;1.00;;;;;;;;4901164;28;45926;-79
2022/05/16 14:20:06;;;;;;;;;0.25;0.25;;;;;;;;4913757;28;45395;-81
2022/05/16 14:22:39;;;;;;;;;1.75;0.25;;;;;;;;4923376;28;45425;-84
2022/05/16 14:25:07;;;;;;;;;1.75;0.00;;;;;;;;4909580;28;45538;-82
2022/05/16 14:27:36;;;;;;;;;0.50;0.50;;;;;;;;4917452;28;45771;-81
2022/05/16 14:30:09;;;;;;;;;0.25;0.25;;;;;;;;4911379;28;45546;-82
2022/05/16 14:32:35;;;;;;;;;2.75;1.00;;;;;;;;4917123;28;45471;-81
2022/05/16 14:35:04;;;;;;;;;2.75;0.25;;;;;;;;4912680;28;46018;-81
2022/05/16 14:37:30;;;;;;;;;2.50;1.00;;;;;;;;4916841;28;45649;-80
2022/05/16 14:40:02;;;;;;;;;1.00;1.00;;;;;;;;4905359;28;46021;-82
2022/05/16 14:42:30;;;;;;;;;2.00;1.00;;;;;;;;4915235;28;45423;-83
2022/05/16 14:45:03;;;;;;;;;0.75;0.75;;;;;;;;4888164;28;45809;-81
2022/05/16 14:47:39;;;;;;;;;1.00;1.00;;;;;;;;4917771;28;45677;-81
2022/05/16 14:50:05;;;;;;;;;1.00;1.00;;;;;;;;4909591;28;45362;-82
2022/05/16 14:52:33;;;;;;;;;0.00;0.00;;;;;;;;4899512;28;45583;-80
2022/05/16 14:55:02;;;;;;;;;1.00;1.00;;;;;;;;4896669;28;45498;-81
2022/05/16 14:57:28;;;;;;;;;0.75;0.75;;;;;;;;4902624;28;45535;-81
2022/05/16 14:59:53;;;;;;;;;0.00;0.00;;;;;;;;4892729;28;46779;-80
2022/05/16 15:05:03;;;;;;;;;0.00;0.00;;;;;;;;4917828;28;45916;-84
2022/05/16 15:07:37;;;;;;;;;1.00;1.00;;;;;;;;4905830;28;45570;-80
2022/05/16 15:10:03;;;;;;;;;0.75;0.75;;;;;;;;4904576;28;45701;-82
2022/05/16 15:12:30;;;;;;;;;1.00;1.00;;;;;;;;4889244;28;45516;-81
2022/05/16 15:14:55;;;;;;;;;1.50;1.00;;;;;;;;4897718;28;46217;-83
2022/05/16 15:17:21;;;;;;;;;1.75;0.50;;;;;;;;4904345;28;46959;-82
2022/05/16 15:19:46;;;;;;;;;0.00;0.00;;;;;;;;4904968;28;47344;-83
2022/05/16 15:22:17;;;;;;;;;0.00;0.00;;;;;;;;4919278;28;46041;-81
2022/05/16 15:25:00;;;;;;;;;0.25;0.25;;;;;;;;4925100;28;46004;-82
2022/05/16 15:27:26;;;;;;;;;0.00;0.00;;;;;;;;4915845;28;45688;-79
2022/05/16 15:29:52;;;;;;;;;2.25;1.00;;;;;;;;4902562;28;45582;-81
2022/05/16 15:32:18;;;;;;;;;3.25;1.50;;;;;;;;4907894;28;46010;-81
2022/05/16 15:34:44;;;;;;;;;0.50;0.00;;;;;;;;4905603;28;45645;-79